sensor_id;sensor_type;location;lat;lon;timestamp;temperature;humidity
18047;DHT22;9148;51.454;13.862;2023-05-10T00:01:45;9.80;95.90
18047;DHT22;9148;51.454;13.862;2023-05-10T00:04:11;9.80;95.90
18047;DHT22;9148;51.454;13.862;2023-05-10T00:06:42;9.70;96.10
18047;DHT22;9148;51.454;13.862;2023-05-10T00:09:08;9.70;96.20
18047;DHT22;9148;51.454;13.862;2023-05-10T00:11:33;9.70;96.20
18047;DHT22;9148;51.454;13.862;2023-05-10T00:13:59;9.70;96.50
18047;DHT22;9148;51.454;13.862;2023-05-10T00:16:25;9.60;96.60
18047;DHT22;9148;51.454;13.862;2023-05-10T00:18:50;9.60;97.00
18047;DHT22;9148;51.454;13.862;2023-05-10T00:21:16;9.60;97.10
18047;DHT22;9148;51.454;13.862;2023-05-10T00:23:41;9.60;97.20
18047;DHT22;9148;51.454;13.862;2023-05-10T00:26:07;9.60;97.40
18047;DHT22;9148;51.454;13.862;2023-05-10T00:28:33;9.50;97.40
18047;DHT22;9148;51.454;13.862;2023-05-10T00:30:58;9.50;97.60
18047;DHT22;9148;51.454;13.862;2023-05-10T00:33:24;9.50;97.60
18047;DHT22;9148;51.454;13.862;2023-05-10T00:35:50;9.50;97.80
18047;DHT22;9148;51.454;13.862;2023-05-10T00:38:16;9.40;98.10
18047;DHT22;9148;51.454;13.862;2023-05-10T00:40:41;9.40;98.20
18047;DHT22;9148;51.454;13.862;2023-05-10T00:43:07;9.40;98.40
18047;DHT22;9148;51.454;13.862;2023-05-10T00:45:33;9.40;98.30
18047;DHT22;9148;51.454;13.862;2023-05-10T00:48:04;9.40;98.40
18047;DHT22;9148;51.454;13.862;2023-05-10T00:50:31;9.30;98.50
18047;DHT22;9148;51.454;13.862;2023-05-10T00:52:59;9.30;98.80
18047;DHT22;9148;51.454;13.862;2023-05-10T00:55:25;9.30;98.80
18047;DHT22;9148;51.454;13.862;2023-05-10T00:57:52;9.30;99.10
18047;DHT22;9148;51.454;13.862;2023-05-10T01:00:18;9.20;99.10
18047;DHT22;9148;51.454;13.862;2023-05-10T01:02:47;9.20;99.00
18047;DHT22;9148;51.454;13.862;2023-05-10T01:05:16;9.20;99.20
18047;DHT22;9148;51.454;13.862;2023-05-10T01:07:41;9.20;99.30
18047;DHT22;9148;51.454;13.862;2023-05-10T01:10:08;9.10;99.30
18047;DHT22;9148;51.454;13.862;2023-05-10T01:12:38;9.10;99.20
18047;DHT22;9148;51.454;13.862;2023-05-10T01:15:06;9.10;99.30
18047;DHT22;9148;51.454;13.862;2023-05-10T01:17:35;9.00;99.30
18047;DHT22;9148;51.454;13.862;2023-05-10T01:20:02;9.00;99.50
18047;DHT22;9148;51.454;13.862;2023-05-10T01:22:44;9.60;99.80
18047;DHT22;9148;51.454;13.862;2023-05-10T01:32:08;8.90;99.60
18047;DHT22;9148;51.454;13.862;2023-05-10T01:34:23;8.90;99.60
18047;DHT22;9148;51.454;13.862;2023-05-10T01:36:58;8.80;99.90
18047;DHT22;9148;51.454;13.862;2023-05-10T01:42:23;8.70;99.90
18047;DHT22;9148;51.454;13.862;2023-05-10T01:48:11;8.70;99.90
18047;DHT22;9148;51.454;13.862;2023-05-10T01:50:43;8.70;99.90
18047;DHT22;9148;51.454;13.862;2023-05-10T01:53:10;8.60;99.90
18047;DHT22;9148;51.454;13.862;2023-05-10T01:55:43;8.60;99.90
18047;DHT22;9148;51.454;13.862;2023-05-10T01:58:15;8.60;99.90
18047;DHT22;9148;51.454;13.862;2023-05-10T02:00:46;8.60;99.90
18047;DHT22;9148;51.454;13.862;2023-05-10T02:03:14;8.50;99.90
18047;DHT22;9148;51.454;13.862;2023-05-10T02:05:41;8.50;99.90
18047;DHT22;9148;51.454;13.862;2023-05-10T02:08:11;8.50;99.90
18047;DHT22;9148;51.454;13.862;2023-05-10T02:10:39;8.50;99.90
18047;DHT22;9148;51.454;13.862;2023-05-10T02:13:07;8.40;99.90
18047;DHT22;9148;51.454;13.862;2023-05-10T02:15:33;8.40;99.90
18047;DHT22;9148;51.454;13.862;2023-05-10T02:18:00;8.40;99.90
18047;DHT22;9148;51.454;13.862;2023-05-10T02:20:28;8.30;99.90
18047;DHT22;9148;51.454;13.862;2023-05-10T02:22:55;8.30;99.90
18047;DHT22;9148;51.454;13.862;2023-05-10T02:25:23;8.30;99.90
18047;DHT22;9148;51.454;13.862;2023-05-10T02:27:50;8.30;99.90
18047;DHT22;9148;51.454;13.862;2023-05-10T02:30:18;8.30;99.90
18047;DHT22;9148;51.454;13.862;2023-05-10T02:32:44;8.70;99.90
18047;DHT22;9148;51.454;13.862;2023-05-10T02:35:11;8.30;99.90
18047;DHT22;9148;51.454;13.862;2023-05-10T02:37:38;8.30;99.90
18047;DHT22;9148;51.454;13.862;2023-05-10T02:40:06;8.20;99.90
18047;DHT22;9148;51.454;13.862;2023-05-10T02:42:35;8.30;99.90
18047;DHT22;9148;51.454;13.862;2023-05-10T02:45:07;8.30;99.90
18047;DHT22;9148;51.454;13.862;2023-05-10T02:47:36;8.20;99.90
18047;DHT22;9148;51.454;13.862;2023-05-10T02:50:02;8.20;99.90
18047;DHT22;9148;51.454;13.862;2023-05-10T02:52:43;8.20;99.90
18047;DHT22;9148;51.454;13.862;2023-05-10T02:55:13;8.20;99.90
18047;DHT22;9148;51.454;13.862;2023-05-10T02:57:43;8.20;99.90
18047;DHT22;9148;51.454;13.862;2023-05-10T03:00:13;8.20;99.90
18047;DHT22;9148;51.454;13.862;2023-05-10T03:02:39;8.10;99.90
18047;DHT22;9148;51.454;13.862;2023-05-10T03:05:05;8.20;99.90
18047;DHT22;9148;51.454;13.862;2023-05-10T03:07:30;8.20;99.90
18047;DHT22;9148;51.454;13.862;2023-05-10T03:09:56;8.20;99.90
18047;DHT22;9148;51.454;13.862;2023-05-10T03:13:05;8.20;99.90
18047;DHT22;9148;51.454;13.862;2023-05-10T03:15:54;8.20;99.90
18047;DHT22;9148;51.454;13.862;2023-05-10T03:18:29;8.20;99.90
18047;DHT22;9148;51.454;13.862;2023-05-10T03:21:17;8.20;99.90
18047;DHT22;9148;51.454;13.862;2023-05-10T03:23:47;8.20;99.90
18047;DHT22;9148;51.454;13.862;2023-05-10T03:26:27;8.30;99.90
18047;DHT22;9148;51.454;13.862;2023-05-10T03:28:54;8.20;99.90
18047;DHT22;9148;51.454;13.862;2023-05-10T03:31:20;8.30;99.90
18047;DHT22;9148;51.454;13.862;2023-05-10T03:33:51;8.20;99.90
18047;DHT22;9148;51.454;13.862;2023-05-10T03:36:18;8.30;99.90
18047;DHT22;9148;51.454;13.862;2023-05-10T03:38:44;8.40;99.90
18047;DHT22;9148;51.454;13.862;2023-05-10T03:41:22;8.30;99.90
18047;DHT22;9148;51.454;13.862;2023-05-10T03:43:48;8.30;99.90
18047;DHT22;9148;51.454;13.862;2023-05-10T03:46:13;8.30;99.90
18047;DHT22;9148;51.454;13.862;2023-05-10T03:48:39;8.30;99.90
18047;DHT22;9148;51.454;13.862;2023-05-10T03:51:05;8.30;99.90
18047;DHT22;9148;51.454;13.862;2023-05-10T03:53:30;8.30;99.90
18047;DHT22;9148;51.454;13.862;2023-05-10T03:55:56;8.40;99.90
18047;DHT22;9148;51.454;13.862;2023-05-10T03:58:21;8.40;99.90
18047;DHT22;9148;51.454;13.862;2023-05-10T04:00:47;8.40;99.90
18047;DHT22;9148;51.454;13.862;2023-05-10T04:03:13;8.40;99.90
18047;DHT22;9148;51.454;13.862;2023-05-10T04:05:39;8.50;99.90
18047;DHT22;9148;51.454;13.862;2023-05-10T04:08:05;8.50;99.90
18047;DHT22;9148;51.454;13.862;2023-05-10T04:10:31;8.60;99.90
18047;DHT22;9148;51.454;13.862;2023-05-10T04:12:57;8.60;99.90
18047;DHT22;9148;51.454;13.862;2023-05-10T04:15:23;8.70;99.90
18047;DHT22;9148;51.454;13.862;2023-05-10T04:17:49;8.80;99.90
18047;DHT22;9148;51.454;13.862;2023-05-10T04:20:15;8.80;99.90
18047;DHT22;9148;51.454;13.862;2023-05-10T04:22:41;8.90;99.90
18047;DHT22;9148;51.454;13.862;2023-05-10T04:25:07;9.00;99.90
18047;DHT22;9148;51.454;13.862;2023-05-10T04:27:33;9.10;99.90
18047;DHT22;9148;51.454;13.862;2023-05-10T04:29:59;9.20;99.90
18047;DHT22;9148;51.454;13.862;2023-05-10T04:32:24;9.30;99.90
18047;DHT22;9148;51.454;13.862;2023-05-10T04:34:50;9.40;99.90
18047;DHT22;9148;51.454;13.862;2023-05-10T04:37:19;9.50;99.90
18047;DHT22;9148;51.454;13.862;2023-05-10T04:39:46;9.60;99.90
18047;DHT22;9148;51.454;13.862;2023-05-10T04:42:12;9.70;99.90
18047;DHT22;9148;51.454;13.862;2023-05-10T04:44:40;9.80;99.90
18047;DHT22;9148;51.454;13.862;2023-05-10T04:47:06;9.90;99.90
18047;DHT22;9148;51.454;13.862;2023-05-10T04:49:31;10.10;99.90
18047;DHT22;9148;51.454;13.862;2023-05-10T04:51:57;10.20;99.90
18047;DHT22;9148;51.454;13.862;2023-05-10T04:54:23;10.30;99.90
18047;DHT22;9148;51.454;13.862;2023-05-10T04:56:49;10.40;99.90
18047;DHT22;9148;51.454;13.862;2023-05-10T04:59:14;10.60;99.90
18047;DHT22;9148;51.454;13.862;2023-05-10T05:01:40;10.80;99.90
18047;DHT22;9148;51.454;13.862;2023-05-10T05:04:06;10.90;99.90
18047;DHT22;9148;51.454;13.862;2023-05-10T05:06:32;11.10;99.90
18047;DHT22;9148;51.454;13.862;2023-05-10T05:08:57;11.20;99.90
18047;DHT22;9148;51.454;13.862;2023-05-10T05:11:23;11.30;99.90
18047;DHT22;9148;51.454;13.862;2023-05-10T05:13:49;11.50;99.90
18047;DHT22;9148;51.454;13.862;2023-05-10T05:16:14;11.60;99.90
18047;DHT22;9148;51.454;13.862;2023-05-10T05:18:40;11.80;99.90
18047;DHT22;9148;51.454;13.862;2023-05-10T05:21:18;11.90;99.90
18047;DHT22;9148;51.454;13.862;2023-05-10T05:23:45;12.10;99.60
18047;DHT22;9148;51.454;13.862;2023-05-10T05:26:11;12.20;99.40
18047;DHT22;9148;51.454;13.862;2023-05-10T05:28:36;12.40;99.20
18047;DHT22;9148;51.454;13.862;2023-05-10T05:31:04;12.60;99.00
18047;DHT22;9148;51.454;13.862;2023-05-10T05:33:30;12.80;98.50
18047;DHT22;9148;51.454;13.862;2023-05-10T05:35:56;13.00;98.20
18047;DHT22;9148;51.454;13.862;2023-05-10T05:38:22;13.20;97.70
18047;DHT22;9148;51.454;13.862;2023-05-10T05:40:47;13.50;97.40
18047;DHT22;9148;51.454;13.862;2023-05-10T05:43:13;13.70;96.50
18047;DHT22;9148;51.454;13.862;2023-05-10T05:45:39;13.90;96.10
18047;DHT22;9148;51.454;13.862;2023-05-10T05:48:04;14.10;95.70
18047;DHT22;9148;51.454;13.862;2023-05-10T05:50:30;14.40;94.80
18047;DHT22;9148;51.454;13.862;2023-05-10T05:52:56;14.60;94.40
18047;DHT22;9148;51.454;13.862;2023-05-10T05:55:22;14.80;92.60
18047;DHT22;9148;51.454;13.862;2023-05-10T05:57:49;15.00;90.60
18047;DHT22;9148;51.454;13.862;2023-05-10T06:00:15;15.10;90.30
18047;DHT22;9148;51.454;13.862;2023-05-10T06:02:41;15.30;86.10
18047;DHT22;9148;51.454;13.862;2023-05-10T06:05:07;15.10;85.50
18047;DHT22;9148;51.454;13.862;2023-05-10T06:07:33;15.50;84.60
18047;DHT22;9148;51.454;13.862;2023-05-10T06:09:59;15.70;82.40
18047;DHT22;9148;51.454;13.862;2023-05-10T06:12:24;15.80;82.30
18047;DHT22;9148;51.454;13.862;2023-05-10T06:14:50;16.00;78.00
18047;DHT22;9148;51.454;13.862;2023-05-10T06:17:16;16.10;77.40
18047;DHT22;9148;51.454;13.862;2023-05-10T06:19:41;16.20;77.30
18047;DHT22;9148;51.454;13.862;2023-05-10T06:22:07;16.30;74.40
18047;DHT22;9148;51.454;13.862;2023-05-10T06:24:33;16.40;71.90
18047;DHT22;9148;51.454;13.862;2023-05-10T06:26:58;16.50;71.80
18047;DHT22;9148;51.454;13.862;2023-05-10T06:29:25;16.50;70.80
18047;DHT22;9148;51.454;13.862;2023-05-10T06:31:51;16.60;70.90
18047;DHT22;9148;51.454;13.862;2023-05-10T06:34:17;16.70;71.10
18047;DHT22;9148;51.454;13.862;2023-05-10T06:36:42;16.80;69.70
18047;DHT22;9148;51.454;13.862;2023-05-10T06:39:08;16.90;69.20
18047;DHT22;9148;51.454;13.862;2023-05-10T06:41:34;17.10;68.00
18047;DHT22;9148;51.454;13.862;2023-05-10T06:43:59;17.20;65.70
18047;DHT22;9148;51.454;13.862;2023-05-10T06:46:25;17.20;64.80
18047;DHT22;9148;51.454;13.862;2023-05-10T06:48:51;17.30;65.30
18047;DHT22;9148;51.454;13.862;2023-05-10T06:51:16;17.30;64.20
18047;DHT22;9148;51.454;13.862;2023-05-10T06:53:42;17.40;64.20
18047;DHT22;9148;51.454;13.862;2023-05-10T06:56:08;17.50;62.90
18047;DHT22;9148;51.454;13.862;2023-05-10T06:58:34;17.60;62.80
18047;DHT22;9148;51.454;13.862;2023-05-10T07:01:03;17.70;62.20
18047;DHT22;9148;51.454;13.862;2023-05-10T07:03:30;17.80;60.70
18047;DHT22;9148;51.454;13.862;2023-05-10T07:06:01;17.80;60.30
18047;DHT22;9148;51.454;13.862;2023-05-10T07:08:29;17.90;60.00
18047;DHT22;9148;51.454;13.862;2023-05-10T07:11:03;18.00;59.60
18047;DHT22;9148;51.454;13.862;2023-05-10T07:13:31;18.10;59.90
18047;DHT22;9148;51.454;13.862;2023-05-10T07:15:58;18.20;59.70
18047;DHT22;9148;51.454;13.862;2023-05-10T07:18:24;18.30;59.30
18047;DHT22;9148;51.454;13.862;2023-05-10T07:20:50;18.40;59.20
18047;DHT22;9148;51.454;13.862;2023-05-10T07:23:16;18.60;58.80
18047;DHT22;9148;51.454;13.862;2023-05-10T07:25:46;18.70;57.90
18047;DHT22;9148;51.454;13.862;2023-05-10T07:28:13;18.80;57.60
18047;DHT22;9148;51.454;13.862;2023-05-10T07:30:39;18.80;57.60
18047;DHT22;9148;51.454;13.862;2023-05-10T07:33:05;19.00;56.60
18047;DHT22;9148;51.454;13.862;2023-05-10T07:35:31;19.10;56.50
18047;DHT22;9148;51.454;13.862;2023-05-10T07:37:56;19.20;56.60
18047;DHT22;9148;51.454;13.862;2023-05-10T07:40:22;19.30;56.20
18047;DHT22;9148;51.454;13.862;2023-05-10T07:42:48;19.40;55.50
18047;DHT22;9148;51.454;13.862;2023-05-10T07:45:13;19.50;55.90
18047;DHT22;9148;51.454;13.862;2023-05-10T07:47:39;19.60;55.20
18047;DHT22;9148;51.454;13.862;2023-05-10T07:50:05;19.60;55.80
18047;DHT22;9148;51.454;13.862;2023-05-10T07:52:32;19.70;54.30
18047;DHT22;9148;51.454;13.862;2023-05-10T07:54:57;19.70;55.00
18047;DHT22;9148;51.454;13.862;2023-05-10T07:57:23;19.80;54.60
18047;DHT22;9148;51.454;13.862;2023-05-10T07:59:49;19.90;54.10
18047;DHT22;9148;51.454;13.862;2023-05-10T08:02:14;20.00;53.20
18047;DHT22;9148;51.454;13.862;2023-05-10T08:04:40;20.00;53.20
18047;DHT22;9148;51.454;13.862;2023-05-10T08:07:06;20.00;53.50
18047;DHT22;9148;51.454;13.862;2023-05-10T08:09:32;20.00;53.60
18047;DHT22;9148;51.454;13.862;2023-05-10T08:11:58;20.00;53.10
18047;DHT22;9148;51.454;13.862;2023-05-10T08:14:25;19.80;52.90
18047;DHT22;9148;51.454;13.862;2023-05-10T08:16:52;19.90;52.60
18047;DHT22;9148;51.454;13.862;2023-05-10T08:19:18;19.80;52.70
18047;DHT22;9148;51.454;13.862;2023-05-10T08:21:45;19.80;53.10
18047;DHT22;9148;51.454;13.862;2023-05-10T08:24:11;19.70;53.60
18047;DHT22;9148;51.454;13.862;2023-05-10T08:26:36;19.80;53.90
18047;DHT22;9148;51.454;13.862;2023-05-10T08:29:02;20.00;53.50
18047;DHT22;9148;51.454;13.862;2023-05-10T08:31:28;20.10;52.80
18047;DHT22;9148;51.454;13.862;2023-05-10T08:33:54;20.20;52.10
18047;DHT22;9148;51.454;13.862;2023-05-10T08:36:19;20.10;52.30
18047;DHT22;9148;51.454;13.862;2023-05-10T08:38:49;20.20;52.50
18047;DHT22;9148;51.454;13.862;2023-05-10T08:41:19;20.20;52.70
18047;DHT22;9148;51.454;13.862;2023-05-10T08:43:46;20.30;52.20
18047;DHT22;9148;51.454;13.862;2023-05-10T08:46:16;20.30;52.20
18047;DHT22;9148;51.454;13.862;2023-05-10T08:48:44;20.40;52.60
18047;DHT22;9148;51.454;13.862;2023-05-10T08:51:14;20.50;52.40
18047;DHT22;9148;51.454;13.862;2023-05-10T08:53:40;20.60;51.90
18047;DHT22;9148;51.454;13.862;2023-05-10T08:56:06;20.50;51.50
18047;DHT22;9148;51.454;13.862;2023-05-10T08:58:32;20.50;52.30
18047;DHT22;9148;51.454;13.862;2023-05-10T09:00:59;20.70;52.10
18047;DHT22;9148;51.454;13.862;2023-05-10T09:03:26;20.80;52.00
18047;DHT22;9148;51.454;13.862;2023-05-10T09:05:51;20.80;51.90
18047;DHT22;9148;51.454;13.862;2023-05-10T09:08:17;21.20;51.30
18047;DHT22;9148;51.454;13.862;2023-05-10T09:10:44;21.40;51.00
18047;DHT22;9148;51.454;13.862;2023-05-10T09:13:13;21.50;50.60
18047;DHT22;9148;51.454;13.862;2023-05-10T09:15:39;21.50;50.10
18047;DHT22;9148;51.454;13.862;2023-05-10T09:18:05;21.60;49.90
18047;DHT22;9148;51.454;13.862;2023-05-10T09:20:30;21.60;49.60
18047;DHT22;9148;51.454;13.862;2023-05-10T09:22:56;21.50;49.30
18047;DHT22;9148;51.454;13.862;2023-05-10T09:25:22;21.50;50.00
18047;DHT22;9148;51.454;13.862;2023-05-10T09:27:48;21.60;50.20
18047;DHT22;9148;51.454;13.862;2023-05-10T09:30:24;21.80;50.10
18047;DHT22;9148;51.454;13.862;2023-05-10T09:32:55;22.10;49.50
18047;DHT22;9148;51.454;13.862;2023-05-10T09:35:23;22.20;49.20
18047;DHT22;9148;51.454;13.862;2023-05-10T09:37:54;22.30;49.40
18047;DHT22;9148;51.454;13.862;2023-05-10T09:40:24;22.60;48.20
18047;DHT22;9148;51.454;13.862;2023-05-10T09:43:04;22.60;47.40
18047;DHT22;9148;51.454;13.862;2023-05-10T09:45:34;22.50;47.10
18047;DHT22;9148;51.454;13.862;2023-05-10T09:48:01;22.30;47.60
18047;DHT22;9148;51.454;13.862;2023-05-10T09:50:29;22.30;48.00
18047;DHT22;9148;51.454;13.862;2023-05-10T09:53:00;22.30;48.00
18047;DHT22;9148;51.454;13.862;2023-05-10T09:55:44;22.40;48.30
18047;DHT22;9148;51.454;13.862;2023-05-10T09:58:12;22.60;47.40
18047;DHT22;9148;51.454;13.862;2023-05-10T10:00:40;22.70;46.60
18047;DHT22;9148;51.454;13.862;2023-05-10T10:03:12;22.60;46.40
18047;DHT22;9148;51.454;13.862;2023-05-10T10:05:40;22.60;46.30
18047;DHT22;9148;51.454;13.862;2023-05-10T10:08:11;22.50;46.30
18047;DHT22;9148;51.454;13.862;2023-05-10T10:10:38;22.50;47.20
18047;DHT22;9148;51.454;13.862;2023-05-10T10:13:05;22.60;46.90
18047;DHT22;9148;51.454;13.862;2023-05-10T10:15:33;22.60;46.70
18047;DHT22;9148;51.454;13.862;2023-05-10T10:17:59;22.70;46.60
18047;DHT22;9148;51.454;13.862;2023-05-10T10:20:28;22.80;46.30
18047;DHT22;9148;51.454;13.862;2023-05-10T10:22:54;22.90;46.20
18047;DHT22;9148;51.454;13.862;2023-05-10T10:25:20;23.00;46.50
18047;DHT22;9148;51.454;13.862;2023-05-10T10:36:01;23.80;45.10
18047;DHT22;9148;51.454;13.862;2023-05-10T10:41:31;24.10;44.10
18047;DHT22;9148;51.454;13.862;2023-05-10T10:44:25;24.20;43.70
18047;DHT22;9148;51.454;13.862;2023-05-10T10:55:06;24.60;42.60
18047;DHT22;9148;51.454;13.862;2023-05-10T11:00:28;25.30;42.50
18047;DHT22;9148;51.454;13.862;2023-05-10T11:03:03;24.80;42.10
18047;DHT22;9148;51.454;13.862;2023-05-10T11:05:44;24.80;42.60
18047;DHT22;9148;51.454;13.862;2023-05-10T11:10:50;25.00;41.80
18047;DHT22;9148;51.454;13.862;2023-05-10T11:15:55;25.10;41.30
18047;DHT22;9148;51.454;13.862;2023-05-10T11:18:27;25.10;41.30
18047;DHT22;9148;51.454;13.862;2023-05-10T11:20:59;25.00;42.00
18047;DHT22;9148;51.454;13.862;2023-05-10T11:23:58;25.20;41.90
18047;DHT22;9148;51.454;13.862;2023-05-10T11:26:26;25.40;41.80
18047;DHT22;9148;51.454;13.862;2023-05-10T11:28:56;25.50;41.40
18047;DHT22;9148;51.454;13.862;2023-05-10T11:31:23;25.70;41.10
18047;DHT22;9148;51.454;13.862;2023-05-10T11:33:56;25.90;41.10
18047;DHT22;9148;51.454;13.862;2023-05-10T11:36:25;26.00;40.80
18047;DHT22;9148;51.454;13.862;2023-05-10T11:38:53;26.00;40.50
18047;DHT22;9148;51.454;13.862;2023-05-10T11:41:20;26.10;40.00
18047;DHT22;9148;51.454;13.862;2023-05-10T11:43:48;26.20;39.30
18047;DHT22;9148;51.454;13.862;2023-05-10T11:46:15;26.20;39.40
18047;DHT22;9148;51.454;13.862;2023-05-10T11:48:42;26.10;39.80
18047;DHT22;9148;51.454;13.862;2023-05-10T11:51:09;26.30;40.10
18047;DHT22;9148;51.454;13.862;2023-05-10T11:53:35;26.50;39.40
18047;DHT22;9148;51.454;13.862;2023-05-10T11:56:08;26.30;38.70
18047;DHT22;9148;51.454;13.862;2023-05-10T11:58:36;26.10;39.60
18047;DHT22;9148;51.454;13.862;2023-05-10T12:01:03;26.20;39.30
18047;DHT22;9148;51.454;13.862;2023-05-10T12:03:31;26.20;39.60
18047;DHT22;9148;51.454;13.862;2023-05-10T12:05:57;26.20;39.70
18047;DHT22;9148;51.454;13.862;2023-05-10T12:08:25;26.20;39.40
18047;DHT22;9148;51.454;13.862;2023-05-10T12:10:54;26.10;39.60
18047;DHT22;9148;51.454;13.862;2023-05-10T12:13:39;26.20;40.50
18047;DHT22;9148;51.454;13.862;2023-05-10T12:16:19;26.30;39.70
18047;DHT22;9148;51.454;13.862;2023-05-10T12:18:48;26.30;39.60
18047;DHT22;9148;51.454;13.862;2023-05-10T12:21:16;26.20;39.60
18047;DHT22;9148;51.454;13.862;2023-05-10T12:23:42;26.20;39.60
18047;DHT22;9148;51.454;13.862;2023-05-10T12:26:11;26.50;39.80
18047;DHT22;9148;51.454;13.862;2023-05-10T12:28:39;25.80;39.30
18047;DHT22;9148;51.454;13.862;2023-05-10T12:31:06;25.60;39.60
18047;DHT22;9148;51.454;13.862;2023-05-10T12:33:40;25.50;40.20
18047;DHT22;9148;51.454;13.862;2023-05-10T12:36:10;25.50;40.30
18047;DHT22;9148;51.454;13.862;2023-05-10T12:38:38;25.60;40.60
18047;DHT22;9148;51.454;13.862;2023-05-10T12:41:07;25.80;40.40
18047;DHT22;9148;51.454;13.862;2023-05-10T12:43:35;25.80;40.60
18047;DHT22;9148;51.454;13.862;2023-05-10T12:46:12;25.90;40.10
18047;DHT22;9148;51.454;13.862;2023-05-10T12:48:39;26.00;40.50
18047;DHT22;9148;51.454;13.862;2023-05-10T12:51:06;26.00;39.70
18047;DHT22;9148;51.454;13.862;2023-05-10T12:53:35;25.80;39.80
18047;DHT22;9148;51.454;13.862;2023-05-10T12:56:01;25.80;40.00
18047;DHT22;9148;51.454;13.862;2023-05-10T12:58:26;25.70;40.20
18047;DHT22;9148;51.454;13.862;2023-05-10T13:00:52;25.80;39.90
18047;DHT22;9148;51.454;13.862;2023-05-10T13:03:18;25.80;39.60
18047;DHT22;9148;51.454;13.862;2023-05-10T13:05:44;26.30;40.30
18047;DHT22;9148;51.454;13.862;2023-05-10T13:08:10;25.60;40.00
18047;DHT22;9148;51.454;13.862;2023-05-10T13:10:36;25.30;40.20
18047;DHT22;9148;51.454;13.862;2023-05-10T13:13:02;25.00;40.60
18047;DHT22;9148;51.454;13.862;2023-05-10T13:15:28;24.80;41.10
18047;DHT22;9148;51.454;13.862;2023-05-10T13:17:54;24.80;41.30
18047;DHT22;9148;51.454;13.862;2023-05-10T13:20:20;25.00;41.20
18047;DHT22;9148;51.454;13.862;2023-05-10T13:22:45;25.20;41.20
18047;DHT22;9148;51.454;13.862;2023-05-10T13:25:12;25.40;40.60
18047;DHT22;9148;51.454;13.862;2023-05-10T13:27:41;25.40;40.70
18047;DHT22;9148;51.454;13.862;2023-05-10T13:30:10;25.40;40.60
18047;DHT22;9148;51.454;13.862;2023-05-10T13:32:36;25.30;40.70
18047;DHT22;9148;51.454;13.862;2023-05-10T13:35:03;25.10;40.80
18047;DHT22;9148;51.454;13.862;2023-05-10T13:37:30;24.90;40.40
18047;DHT22;9148;51.454;13.862;2023-05-10T13:39:56;24.80;41.30
18047;DHT22;9148;51.454;13.862;2023-05-10T13:42:23;24.60;41.10
18047;DHT22;9148;51.454;13.862;2023-05-10T13:44:49;24.40;41.10
18047;DHT22;9148;51.454;13.862;2023-05-10T13:47:15;24.40;41.40
18047;DHT22;9148;51.454;13.862;2023-05-10T13:49:41;24.30;41.50
18047;DHT22;9148;51.454;13.862;2023-05-10T13:52:07;24.10;42.00
18047;DHT22;9148;51.454;13.862;2023-05-10T13:54:33;24.80;42.60
18047;DHT22;9148;51.454;13.862;2023-05-10T13:56:59;23.90;42.20
18047;DHT22;9148;51.454;13.862;2023-05-10T13:59:25;23.70;42.30
18047;DHT22;9148;51.454;13.862;2023-05-10T14:01:51;23.60;42.70
18047;DHT22;9148;51.454;13.862;2023-05-10T14:04:17;23.70;42.90
18047;DHT22;9148;51.454;13.862;2023-05-10T14:06:42;23.60;43.10
18047;DHT22;9148;51.454;13.862;2023-05-10T14:09:08;23.50;43.30
18047;DHT22;9148;51.454;13.862;2023-05-10T14:11:34;23.50;43.40
18047;DHT22;9148;51.454;13.862;2023-05-10T14:14:00;23.50;44.00
18047;DHT22;9148;51.454;13.862;2023-05-10T14:16:26;23.50;48.40
18047;DHT22;9148;51.454;13.862;2023-05-10T14:18:52;23.40;49.40
18047;DHT22;9148;51.454;13.862;2023-05-10T14:21:18;23.20;50.00
18047;DHT22;9148;51.454;13.862;2023-05-10T14:23:43;23.10;50.60
18047;DHT22;9148;51.454;13.862;2023-05-10T14:26:09;23.00;50.80
18047;DHT22;9148;51.454;13.862;2023-05-10T14:28:35;23.00;51.40
18047;DHT22;9148;51.454;13.862;2023-05-10T14:31:00;23.00;51.60
18047;DHT22;9148;51.454;13.862;2023-05-10T14:33:26;22.90;51.70
18047;DHT22;9148;51.454;13.862;2023-05-10T14:35:53;22.90;51.70
18047;DHT22;9148;51.454;13.862;2023-05-10T14:38:21;22.90;52.10
18047;DHT22;9148;51.454;13.862;2023-05-10T14:40:47;22.90;52.30
18047;DHT22;9148;51.454;13.862;2023-05-10T14:43:13;23.10;52.50
18047;DHT22;9148;51.454;13.862;2023-05-10T14:45:39;23.30;52.40
18047;DHT22;9148;51.454;13.862;2023-05-10T14:48:04;23.30;52.50
18047;DHT22;9148;51.454;13.862;2023-05-10T14:50:30;23.50;52.40
18047;DHT22;9148;51.454;13.862;2023-05-10T14:52:57;23.60;52.20
18047;DHT22;9148;51.454;13.862;2023-05-10T14:55:24;23.70;51.90
18047;DHT22;9148;51.454;13.862;2023-05-10T14:57:49;23.70;51.90
18047;DHT22;9148;51.454;13.862;2023-05-10T15:00:16;23.70;51.70
18047;DHT22;9148;51.454;13.862;2023-05-10T15:02:42;23.60;51.50
18047;DHT22;9148;51.454;13.862;2023-05-10T15:05:08;23.60;51.80
18047;DHT22;9148;51.454;13.862;2023-05-10T15:07:33;23.40;52.50
18047;DHT22;9148;51.454;13.862;2023-05-10T15:09:59;23.30;53.10
18047;DHT22;9148;51.454;13.862;2023-05-10T15:12:25;23.10;53.30
18047;DHT22;9148;51.454;13.862;2023-05-10T15:14:51;23.00;54.00
18047;DHT22;9148;51.454;13.862;2023-05-10T15:17:16;22.90;54.80
18047;DHT22;9148;51.454;13.862;2023-05-10T15:19:42;22.80;55.50
18047;DHT22;9148;51.454;13.862;2023-05-10T15:22:08;22.70;55.70
18047;DHT22;9148;51.454;13.862;2023-05-10T15:24:34;22.70;56.10
18047;DHT22;9148;51.454;13.862;2023-05-10T15:26:59;22.60;56.40
18047;DHT22;9148;51.454;13.862;2023-05-10T15:29:26;22.60;56.30
18047;DHT22;9148;51.454;13.862;2023-05-10T15:31:52;22.50;56.60
18047;DHT22;9148;51.454;13.862;2023-05-10T15:34:18;22.40;56.60
18047;DHT22;9148;51.454;13.862;2023-05-10T15:36:44;22.40;56.90
18047;DHT22;9148;51.454;13.862;2023-05-10T15:39:11;22.40;57.20
18047;DHT22;9148;51.454;13.862;2023-05-10T15:41:37;22.40;57.50
18047;DHT22;9148;51.454;13.862;2023-05-10T15:44:03;22.30;57.50
18047;DHT22;9148;51.454;13.862;2023-05-10T15:46:29;22.30;57.50
18047;DHT22;9148;51.454;13.862;2023-05-10T15:48:58;22.20;57.40
18047;DHT22;9148;51.454;13.862;2023-05-10T15:51:25;22.10;57.50
18047;DHT22;9148;51.454;13.862;2023-05-10T15:53:51;22.00;58.00
18047;DHT22;9148;51.454;13.862;2023-05-10T15:56:16;21.80;57.50
18047;DHT22;9148;51.454;13.862;2023-05-10T15:58:42;21.80;57.60
18047;DHT22;9148;51.454;13.862;2023-05-10T16:01:09;21.90;58.00
18047;DHT22;9148;51.454;13.862;2023-05-10T16:03:36;21.70;58.50
18047;DHT22;9148;51.454;13.862;2023-05-10T16:06:02;21.60;57.90
18047;DHT22;9148;51.454;13.862;2023-05-10T16:08:28;21.50;57.90
18047;DHT22;9148;51.454;13.862;2023-05-10T16:10:58;21.50;58.10
18047;DHT22;9148;51.454;13.862;2023-05-10T16:13:24;21.50;58.50
18047;DHT22;9148;51.454;13.862;2023-05-10T16:15:50;21.40;58.80
18047;DHT22;9148;51.454;13.862;2023-05-10T16:18:15;22.00;59.20